sensor_id;sensor_type;location;lat;lon;timestamp;P1;durP1;ratioP1;P2;durP2;ratioP2
26598;SDS011;14240;51.064;16.612;2022-12-16T00:01:07;199.20;;;69.28;;
26598;SDS011;14240;51.064;16.612;2022-12-16T00:03:47;199.55;;;68.10;;
26598;SDS011;14240;51.064;16.612;2022-12-16T00:06:14;206.90;;;67.05;;
26598;SDS011;14240;51.064;16.612;2022-12-16T00:08:41;218.40;;;71.15;;
26598;SDS011;14240;51.064;16.612;2022-12-16T00:11:07;211.60;;;66.60;;
26598;SDS011;14240;51.064;16.612;2022-12-16T00:13:34;214.70;;;66.75;;
26598;SDS011;14240;51.064;16.612;2022-12-16T00:16:05;200.75;;;67.78;;
26598;SDS011;14240;51.064;16.612;2022-12-16T00:18:32;211.35;;;67.15;;
26598;SDS011;14240;51.064;16.612;2022-12-16T00:20:58;205.05;;;71.15;;
26598;SDS011;14240;51.064;16.612;2022-12-16T00:23:24;213.32;;;70.00;;
26598;SDS011;14240;51.064;16.612;2022-12-16T00:25:51;205.38;;;71.28;;
26598;SDS011;14240;51.064;16.612;2022-12-16T00:28:17;193.32;;;67.70;;
26598;SDS011;14240;51.064;16.612;2022-12-16T00:30:47;209.05;;;70.82;;
26598;SDS011;14240;51.064;16.612;2022-12-16T00:33:14;206.27;;;72.72;;
26598;SDS011;14240;51.064;16.612;2022-12-16T00:35:40;211.93;;;69.88;;
26598;SDS011;14240;51.064;16.612;2022-12-16T00:38:07;200.35;;;70.55;;
26598;SDS011;14240;51.064;16.612;2022-12-16T00:40:33;200.15;;;67.82;;
26598;SDS011;14240;51.064;16.612;2022-12-16T00:42:59;207.30;;;68.63;;
26598;SDS011;14240;51.064;16.612;2022-12-16T00:45:24;203.32;;;67.82;;
26598;SDS011;14240;51.064;16.612;2022-12-16T00:47:50;190.43;;;67.78;;
26598;SDS011;14240;51.064;16.612;2022-12-16T00:50:16;197.10;;;67.28;;
26598;SDS011;14240;51.064;16.612;2022-12-16T00:52:42;212.70;;;68.28;;
26598;SDS011;14240;51.064;16.612;2022-12-16T00:55:09;202.98;;;69.10;;
26598;SDS011;14240;51.064;16.612;2022-12-16T00:57:36;199.90;;;69.13;;
26598;SDS011;14240;51.064;16.612;2022-12-16T01:00:01;185.75;;;67.38;;
26598;SDS011;14240;51.064;16.612;2022-12-16T01:02:29;186.95;;;65.38;;
26598;SDS011;14240;51.064;16.612;2022-12-16T01:04:55;192.00;;;66.40;;
26598;SDS011;14240;51.064;16.612;2022-12-16T01:07:21;195.60;;;66.90;;
26598;SDS011;14240;51.064;16.612;2022-12-16T01:09:47;199.57;;;67.68;;
26598;SDS011;14240;51.064;16.612;2022-12-16T01:12:13;200.80;;;70.28;;
26598;SDS011;14240;51.064;16.612;2022-12-16T01:14:38;181.25;;;65.53;;
26598;SDS011;14240;51.064;16.612;2022-12-16T01:17:04;183.88;;;63.58;;
26598;SDS011;14240;51.064;16.612;2022-12-16T01:19:30;199.93;;;63.90;;
26598;SDS011;14240;51.064;16.612;2022-12-16T01:21:56;182.05;;;61.63;;
26598;SDS011;14240;51.064;16.612;2022-12-16T01:24:21;188.27;;;64.47;;
26598;SDS011;14240;51.064;16.612;2022-12-16T01:26:47;178.48;;;62.25;;
26598;SDS011;14240;51.064;16.612;2022-12-16T01:29:13;185.88;;;62.70;;
26598;SDS011;14240;51.064;16.612;2022-12-16T01:31:38;170.93;;;62.35;;
26598;SDS011;14240;51.064;16.612;2022-12-16T01:34:04;180.55;;;59.30;;
26598;SDS011;14240;51.064;16.612;2022-12-16T01:36:30;190.95;;;65.63;;
26598;SDS011;14240;51.064;16.612;2022-12-16T01:38:56;195.02;;;62.63;;
26598;SDS011;14240;51.064;16.612;2022-12-16T01:41:21;200.02;;;65.65;;
26598;SDS011;14240;51.064;16.612;2022-12-16T01:43:48;189.68;;;62.80;;
26598;SDS011;14240;51.064;16.612;2022-12-16T01:51:36;183.90;;;61.85;;
26598;SDS011;14240;51.064;16.612;2022-12-16T01:56:36;192.30;;;62.70;;
26598;SDS011;14240;51.064;16.612;2022-12-16T01:59:05;184.40;;;58.35;;
26598;SDS011;14240;51.064;16.612;2022-12-16T02:01:32;176.00;;;60.30;;
26598;SDS011;14240;51.064;16.612;2022-12-16T02:03:59;171.65;;;61.03;;
26598;SDS011;14240;51.064;16.612;2022-12-16T02:06:28;181.52;;;61.13;;
26598;SDS011;14240;51.064;16.612;2022-12-16T02:08:55;172.85;;;61.40;;
26598;SDS011;14240;51.064;16.612;2022-12-16T02:11:34;183.55;;;59.78;;
26598;SDS011;14240;51.064;16.612;2022-12-16T02:17:00;162.75;;;56.00;;
26598;SDS011;14240;51.064;16.612;2022-12-16T02:24:51;177.43;;;57.90;;
26598;SDS011;14240;51.064;16.612;2022-12-16T02:30:54;168.05;;;53.42;;
26598;SDS011;14240;51.064;16.612;2022-12-16T02:39:03;152.63;;;50.60;;
26598;SDS011;14240;51.064;16.612;2022-12-16T02:44:14;169.43;;;53.78;;
26598;SDS011;14240;51.064;16.612;2022-12-16T02:46:42;168.68;;;54.15;;
26598;SDS011;14240;51.064;16.612;2022-12-16T02:51:47;149.65;;;49.42;;
26598;SDS011;14240;51.064;16.612;2022-12-16T02:54:13;161.20;;;54.58;;
26598;SDS011;14240;51.064;16.612;2022-12-16T03:07:25;136.80;;;46.08;;
26598;SDS011;14240;51.064;16.612;2022-12-16T03:09:55;126.75;;;44.53;;
26598;SDS011;14240;51.064;16.612;2022-12-16T03:12:22;124.68;;;41.85;;
26598;SDS011;14240;51.064;16.612;2022-12-16T03:14:50;124.10;;;44.65;;
26598;SDS011;14240;51.064;16.612;2022-12-16T03:17:17;115.88;;;40.35;;
26598;SDS011;14240;51.064;16.612;2022-12-16T03:19:49;103.47;;;39.50;;
26598;SDS011;14240;51.064;16.612;2022-12-16T03:22:25;124.47;;;39.00;;
26598;SDS011;14240;51.064;16.612;2022-12-16T03:24:53;104.40;;;37.15;;
26598;SDS011;14240;51.064;16.612;2022-12-16T03:27:22;107.28;;;36.05;;
26598;SDS011;14240;51.064;16.612;2022-12-16T03:29:57;103.50;;;37.50;;
26598;SDS011;14240;51.064;16.612;2022-12-16T03:32:56;94.28;;;35.72;;
26598;SDS011;14240;51.064;16.612;2022-12-16T03:35:29;97.93;;;32.10;;
26598;SDS011;14240;51.064;16.612;2022-12-16T03:37:57;95.68;;;36.40;;
26598;SDS011;14240;51.064;16.612;2022-12-16T03:40:26;91.55;;;34.45;;
26598;SDS011;14240;51.064;16.612;2022-12-16T03:42:53;96.53;;;33.25;;
26598;SDS011;14240;51.064;16.612;2022-12-16T03:45:28;88.25;;;34.58;;
26598;SDS011;14240;51.064;16.612;2022-12-16T03:48:00;109.32;;;34.33;;
26598;SDS011;14240;51.064;16.612;2022-12-16T03:50:27;89.78;;;33.08;;
26598;SDS011;14240;51.064;16.612;2022-12-16T03:52:56;90.85;;;34.35;;
26598;SDS011;14240;51.064;16.612;2022-12-16T03:55:22;101.43;;;34.17;;
26598;SDS011;14240;51.064;16.612;2022-12-16T03:57:48;98.75;;;33.70;;
26598;SDS011;14240;51.064;16.612;2022-12-16T04:00:14;99.43;;;33.95;;
26598;SDS011;14240;51.064;16.612;2022-12-16T04:02:40;95.95;;;33.75;;
26598;SDS011;14240;51.064;16.612;2022-12-16T04:05:06;94.80;;;33.55;;
26598;SDS011;14240;51.064;16.612;2022-12-16T04:07:32;94.00;;;32.50;;
26598;SDS011;14240;51.064;16.612;2022-12-16T04:09:58;95.75;;;34.13;;
26598;SDS011;14240;51.064;16.612;2022-12-16T04:12:24;99.60;;;34.65;;
26598;SDS011;14240;51.064;16.612;2022-12-16T04:15:08;88.53;;;32.70;;
26598;SDS011;14240;51.064;16.612;2022-12-16T04:17:53;98.50;;;32.28;;
26598;SDS011;14240;51.064;16.612;2022-12-16T04:20:39;96.43;;;34.17;;
26598;SDS011;14240;51.064;16.612;2022-12-16T04:23:28;85.47;;;31.23;;
26598;SDS011;14240;51.064;16.612;2022-12-16T04:26:14;87.97;;;31.02;;
26598;SDS011;14240;51.064;16.612;2022-12-16T04:28:40;76.80;;;30.70;;
26598;SDS011;14240;51.064;16.612;2022-12-16T04:31:05;89.72;;;31.38;;
26598;SDS011;14240;51.064;16.612;2022-12-16T04:33:31;85.55;;;31.67;;
26598;SDS011;14240;51.064;16.612;2022-12-16T04:36:16;82.45;;;32.33;;
26598;SDS011;14240;51.064;16.612;2022-12-16T04:39:00;93.38;;;31.77;;
26598;SDS011;14240;51.064;16.612;2022-12-16T04:41:44;77.90;;;28.33;;
26598;SDS011;14240;51.064;16.612;2022-12-16T04:44:28;91.90;;;32.40;;
26598;SDS011;14240;51.064;16.612;2022-12-16T04:47:26;85.75;;;30.23;;
26598;SDS011;14240;51.064;16.612;2022-12-16T04:50:10;89.25;;;32.47;;
26598;SDS011;14240;51.064;16.612;2022-12-16T04:52:55;90.43;;;33.15;;
26598;SDS011;14240;51.064;16.612;2022-12-16T04:55:39;91.82;;;31.95;;
26598;SDS011;14240;51.064;16.612;2022-12-16T04:58:23;75.90;;;31.30;;
26598;SDS011;14240;51.064;16.612;2022-12-16T05:01:07;84.88;;;34.35;;
26598;SDS011;14240;51.064;16.612;2022-12-16T05:03:52;91.43;;;33.47;;
26598;SDS011;14240;51.064;16.612;2022-12-16T05:06:36;90.68;;;33.47;;
26598;SDS011;14240;51.064;16.612;2022-12-16T05:09:20;80.20;;;30.00;;
26598;SDS011;14240;51.064;16.612;2022-12-16T05:12:04;90.60;;;34.75;;
26598;SDS011;14240;51.064;16.612;2022-12-16T05:14:48;92.32;;;35.92;;
26598;SDS011;14240;51.064;16.612;2022-12-16T05:17:32;89.70;;;31.77;;
26598;SDS011;14240;51.064;16.612;2022-12-16T05:20:16;83.18;;;32.13;;
26598;SDS011;14240;51.064;16.612;2022-12-16T05:23:00;89.25;;;33.42;;
26598;SDS011;14240;51.064;16.612;2022-12-16T05:25:44;92.72;;;34.50;;
26598;SDS011;14240;51.064;16.612;2022-12-16T05:28:29;85.70;;;34.47;;
26598;SDS011;14240;51.064;16.612;2022-12-16T05:31:13;96.13;;;34.50;;
26598;SDS011;14240;51.064;16.612;2022-12-16T05:33:57;95.18;;;34.58;;
26598;SDS011;14240;51.064;16.612;2022-12-16T05:36:41;88.75;;;32.95;;
26598;SDS011;14240;51.064;16.612;2022-12-16T05:39:25;84.15;;;33.15;;
26598;SDS011;14240;51.064;16.612;2022-12-16T05:42:09;88.55;;;32.22;;
26598;SDS011;14240;51.064;16.612;2022-12-16T05:44:53;91.25;;;29.73;;
26598;SDS011;14240;51.064;16.612;2022-12-16T05:47:38;90.47;;;30.88;;
26598;SDS011;14240;51.064;16.612;2022-12-16T05:50:22;83.50;;;31.95;;
26598;SDS011;14240;51.064;16.612;2022-12-16T05:53:07;102.93;;;31.88;;
26598;SDS011;14240;51.064;16.612;2022-12-16T05:55:51;81.05;;;29.88;;
26598;SDS011;14240;51.064;16.612;2022-12-16T05:58:35;81.32;;;29.25;;
26598;SDS011;14240;51.064;16.612;2022-12-16T06:01:19;79.97;;;29.67;;
26598;SDS011;14240;51.064;16.612;2022-12-16T06:04:03;80.95;;;28.73;;
26598;SDS011;14240;51.064;16.612;2022-12-16T06:06:47;79.47;;;27.30;;
26598;SDS011;14240;51.064;16.612;2022-12-16T06:09:31;75.57;;;29.15;;
26598;SDS011;14240;51.064;16.612;2022-12-16T06:12:15;77.75;;;27.55;;
26598;SDS011;14240;51.064;16.612;2022-12-16T06:15:00;73.05;;;25.27;;
26598;SDS011;14240;51.064;16.612;2022-12-16T06:17:47;67.57;;;25.45;;
26598;SDS011;14240;51.064;16.612;2022-12-16T06:20:33;66.32;;;25.63;;
26598;SDS011;14240;51.064;16.612;2022-12-16T06:23:18;51.67;;;17.80;;
26598;SDS011;14240;51.064;16.612;2022-12-16T06:26:02;56.83;;;20.92;;
26598;SDS011;14240;51.064;16.612;2022-12-16T06:28:47;70.90;;;25.88;;
26598;SDS011;14240;51.064;16.612;2022-12-16T06:31:31;57.58;;;21.48;;
26598;SDS011;14240;51.064;16.612;2022-12-16T06:34:15;68.03;;;22.92;;
26598;SDS011;14240;51.064;16.612;2022-12-16T06:36:59;73.03;;;26.58;;
26598;SDS011;14240;51.064;16.612;2022-12-16T06:39:43;94.43;;;34.92;;
26598;SDS011;14240;51.064;16.612;2022-12-16T06:42:27;98.25;;;35.92;;
26598;SDS011;14240;51.064;16.612;2022-12-16T06:45:11;97.40;;;35.20;;
26598;SDS011;14240;51.064;16.612;2022-12-16T06:47:55;102.38;;;39.22;;
26598;SDS011;14240;51.064;16.612;2022-12-16T06:50:39;102.53;;;37.70;;
26598;SDS011;14240;51.064;16.612;2022-12-16T06:53:23;95.55;;;34.65;;
26598;SDS011;14240;51.064;16.612;2022-12-16T06:56:08;108.18;;;37.97;;
26598;SDS011;14240;51.064;16.612;2022-12-16T06:58:52;101.93;;;36.22;;
26598;SDS011;14240;51.064;16.612;2022-12-16T07:01:38;92.75;;;35.25;;
26598;SDS011;14240;51.064;16.612;2022-12-16T07:04:22;88.85;;;35.72;;
26598;SDS011;14240;51.064;16.612;2022-12-16T07:07:06;96.93;;;34.28;;
26598;SDS011;14240;51.064;16.612;2022-12-16T07:09:50;97.60;;;33.45;;
26598;SDS011;14240;51.064;16.612;2022-12-16T07:12:34;94.78;;;33.47;;
26598;SDS011;14240;51.064;16.612;2022-12-16T07:15:18;88.35;;;34.35;;
26598;SDS011;14240;51.064;16.612;2022-12-16T07:18:02;90.82;;;33.78;;
26598;SDS011;14240;51.064;16.612;2022-12-16T07:20:46;85.15;;;33.78;;
26598;SDS011;14240;51.064;16.612;2022-12-16T07:23:31;85.70;;;32.47;;
26598;SDS011;14240;51.064;16.612;2022-12-16T07:26:15;88.95;;;30.48;;
26598;SDS011;14240;51.064;16.612;2022-12-16T07:28:59;96.22;;;34.47;;
26598;SDS011;14240;51.064;16.612;2022-12-16T07:31:44;99.50;;;37.45;;
26598;SDS011;14240;51.064;16.612;2022-12-16T07:34:28;90.13;;;31.60;;
26598;SDS011;14240;51.064;16.612;2022-12-16T07:37:12;92.60;;;34.35;;
26598;SDS011;14240;51.064;16.612;2022-12-16T07:39:56;98.55;;;37.75;;
26598;SDS011;14240;51.064;16.612;2022-12-16T07:42:41;119.80;;;40.03;;
26598;SDS011;14240;51.064;16.612;2022-12-16T07:45:25;109.18;;;39.17;;
26598;SDS011;14240;51.064;16.612;2022-12-16T07:48:09;108.82;;;39.80;;
26598;SDS011;14240;51.064;16.612;2022-12-16T07:50:53;109.68;;;38.40;;
26598;SDS011;14240;51.064;16.612;2022-12-16T07:53:38;110.50;;;37.95;;
26598;SDS011;14240;51.064;16.612;2022-12-16T07:56:22;117.68;;;40.53;;
26598;SDS011;14240;51.064;16.612;2022-12-16T07:59:06;108.03;;;38.03;;
26598;SDS011;14240;51.064;16.612;2022-12-16T08:01:50;117.88;;;40.03;;
26598;SDS011;14240;51.064;16.612;2022-12-16T08:04:34;114.13;;;40.60;;
26598;SDS011;14240;51.064;16.612;2022-12-16T08:07:18;103.38;;;38.38;;
26598;SDS011;14240;51.064;16.612;2022-12-16T08:10:02;108.28;;;38.55;;
26598;SDS011;14240;51.064;16.612;2022-12-16T08:12:47;102.88;;;34.67;;
26598;SDS011;14240;51.064;16.612;2022-12-16T08:15:31;116.60;;;40.15;;
26598;SDS011;14240;51.064;16.612;2022-12-16T08:18:15;113.90;;;40.45;;
26598;SDS011;14240;51.064;16.612;2022-12-16T08:20:59;111.57;;;38.53;;
26598;SDS011;14240;51.064;16.612;2022-12-16T08:23:45;103.82;;;36.95;;
26598;SDS011;14240;51.064;16.612;2022-12-16T08:26:32;107.05;;;38.30;;
26598;SDS011;14240;51.064;16.612;2022-12-16T08:29:16;101.10;;;36.97;;
26598;SDS011;14240;51.064;16.612;2022-12-16T08:32:00;101.97;;;36.88;;
26598;SDS011;14240;51.064;16.612;2022-12-16T08:34:44;94.90;;;35.78;;
26598;SDS011;14240;51.064;16.612;2022-12-16T08:37:28;92.43;;;33.78;;
26598;SDS011;14240;51.064;16.612;2022-12-16T08:40:12;101.85;;;36.75;;
26598;SDS011;14240;51.064;16.612;2022-12-16T08:42:56;92.45;;;33.60;;
26598;SDS011;14240;51.064;16.612;2022-12-16T08:45:41;92.75;;;34.85;;
26598;SDS011;14240;51.064;16.612;2022-12-16T08:48:25;101.43;;;35.67;;
26598;SDS011;14240;51.064;16.612;2022-12-16T08:51:10;102.85;;;38.13;;
26598;SDS011;14240;51.064;16.612;2022-12-16T08:53:54;96.72;;;36.95;;
26598;SDS011;14240;51.064;16.612;2022-12-16T08:56:38;100.28;;;35.88;;
26598;SDS011;14240;51.064;16.612;2022-12-16T08:59:23;111.50;;;37.35;;
26598;SDS011;14240;51.064;16.612;2022-12-16T09:02:08;106.63;;;38.25;;
26598;SDS011;14240;51.064;16.612;2022-12-16T09:04:53;89.57;;;35.28;;
26598;SDS011;14240;51.064;16.612;2022-12-16T09:07:37;105.75;;;37.08;;
26598;SDS011;14240;51.064;16.612;2022-12-16T09:10:21;99.38;;;35.75;;
26598;SDS011;14240;51.064;16.612;2022-12-16T09:13:10;109.28;;;37.42;;
26598;SDS011;14240;51.064;16.612;2022-12-16T09:15:56;103.00;;;41.17;;
26598;SDS011;14240;51.064;16.612;2022-12-16T09:18:41;103.22;;;38.83;;
26598;SDS011;14240;51.064;16.612;2022-12-16T09:21:25;95.50;;;37.05;;
26598;SDS011;14240;51.064;16.612;2022-12-16T09:24:09;95.25;;;37.88;;
26598;SDS011;14240;51.064;16.612;2022-12-16T09:26:53;107.13;;;39.65;;
26598;SDS011;14240;51.064;16.612;2022-12-16T09:29:38;105.78;;;36.45;;
26598;SDS011;14240;51.064;16.612;2022-12-16T09:32:22;97.22;;;39.78;;
26598;SDS011;14240;51.064;16.612;2022-12-16T09:35:06;91.85;;;36.53;;
26598;SDS011;14240;51.064;16.612;2022-12-16T09:37:51;105.85;;;39.30;;
26598;SDS011;14240;51.064;16.612;2022-12-16T09:40:39;112.22;;;37.83;;
26598;SDS011;14240;51.064;16.612;2022-12-16T09:43:49;104.30;;;36.55;;
26598;SDS011;14240;51.064;16.612;2022-12-16T09:46:56;104.78;;;40.25;;
26598;SDS011;14240;51.064;16.612;2022-12-16T09:49:48;107.47;;;39.75;;
26598;SDS011;14240;51.064;16.612;2022-12-16T09:52:36;98.25;;;37.58;;
26598;SDS011;14240;51.064;16.612;2022-12-16T09:55:43;111.40;;;41.45;;
26598;SDS011;14240;51.064;16.612;2022-12-16T09:58:31;99.22;;;39.47;;
26598;SDS011;14240;51.064;16.612;2022-12-16T10:01:21;109.40;;;40.67;;
26598;SDS011;14240;51.064;16.612;2022-12-16T10:04:06;118.47;;;42.50;;
26598;SDS011;14240;51.064;16.612;2022-12-16T10:06:51;112.97;;;45.22;;
26598;SDS011;14240;51.064;16.612;2022-12-16T10:12:58;112.63;;;41.55;;
26598;SDS011;14240;51.064;16.612;2022-12-16T10:16:46;117.65;;;44.97;;
26598;SDS011;14240;51.064;16.612;2022-12-16T10:22:28;126.00;;;45.67;;
26598;SDS011;14240;51.064;16.612;2022-12-16T10:25:20;119.28;;;45.88;;
26598;SDS011;14240;51.064;16.612;2022-12-16T10:30:54;118.00;;;46.47;;
26598;SDS011;14240;51.064;16.612;2022-12-16T10:33:38;123.78;;;45.38;;
26598;SDS011;14240;51.064;16.612;2022-12-16T10:36:23;129.55;;;49.05;;
26598;SDS011;14240;51.064;16.612;2022-12-16T10:42:05;119.80;;;47.67;;
26598;SDS011;14240;51.064;16.612;2022-12-16T10:45:01;138.95;;;48.80;;
26598;SDS011;14240;51.064;16.612;2022-12-16T10:47:46;150.50;;;49.47;;
26598;SDS011;14240;51.064;16.612;2022-12-16T10:50:30;131.85;;;48.03;;
26598;SDS011;14240;51.064;16.612;2022-12-16T10:53:31;113.82;;;45.63;;
26598;SDS011;14240;51.064;16.612;2022-12-16T10:59:38;129.75;;;48.13;;
26598;SDS011;14240;51.064;16.612;2022-12-16T11:02:24;125.75;;;48.50;;
26598;SDS011;14240;51.064;16.612;2022-12-16T11:08:36;159.88;;;55.42;;
26598;SDS011;14240;51.064;16.612;2022-12-16T11:11:21;128.43;;;46.50;;
26598;SDS011;14240;51.064;16.612;2022-12-16T11:14:21;133.95;;;48.55;;
26598;SDS011;14240;51.064;16.612;2022-12-16T11:17:21;130.77;;;48.20;;
26598;SDS011;14240;51.064;16.612;2022-12-16T11:20:11;133.60;;;49.40;;
26598;SDS011;14240;51.064;16.612;2022-12-16T11:29:08;129.77;;;50.30;;
26598;SDS011;14240;51.064;16.612;2022-12-16T11:35:02;140.25;;;48.92;;
26598;SDS011;14240;51.064;16.612;2022-12-16T11:37:48;129.77;;;46.67;;
26598;SDS011;14240;51.064;16.612;2022-12-16T11:40:34;132.88;;;50.28;;
26598;SDS011;14240;51.064;16.612;2022-12-16T11:43:20;143.95;;;54.35;;
26598;SDS011;14240;51.064;16.612;2022-12-16T11:46:08;133.98;;;50.38;;
26598;SDS011;14240;51.064;16.612;2022-12-16T11:48:59;111.15;;;44.10;;
26598;SDS011;14240;51.064;16.612;2022-12-16T11:51:49;126.30;;;48.08;;
26598;SDS011;14240;51.064;16.612;2022-12-16T11:54:38;134.80;;;48.20;;
26598;SDS011;14240;51.064;16.612;2022-12-16T12:04:05;126.68;;;47.72;;
26598;SDS011;14240;51.064;16.612;2022-12-16T12:09:45;120.72;;;43.13;;
26598;SDS011;14240;51.064;16.612;2022-12-16T12:12:48;123.70;;;46.30;;
26598;SDS011;14240;51.064;16.612;2022-12-16T12:15:54;120.20;;;47.78;;
26598;SDS011;14240;51.064;16.612;2022-12-16T12:31:07;144.27;;;52.47;;
26598;SDS011;14240;51.064;16.612;2022-12-16T12:38:11;167.48;;;55.63;;
26598;SDS011;14240;51.064;16.612;2022-12-16T12:40:55;146.77;;;51.05;;
26598;SDS011;14240;51.064;16.612;2022-12-16T12:43:54;146.25;;;52.42;;
26598;SDS011;14240;51.064;16.612;2022-12-16T12:49:53;155.57;;;55.17;;
26598;SDS011;14240;51.064;16.612;2022-12-16T12:52:55;151.73;;;54.22;;
26598;SDS011;14240;51.064;16.612;2022-12-16T12:58:48;151.95;;;54.70;;
26598;SDS011;14240;51.064;16.612;2022-12-16T13:01:35;135.32;;;48.20;;
26598;SDS011;14240;51.064;16.612;2022-12-16T13:04:23;152.07;;;53.88;;
26598;SDS011;14240;51.064;16.612;2022-12-16T13:07:10;152.55;;;52.17;;
26598;SDS011;14240;51.064;16.612;2022-12-16T13:15:57;140.00;;;50.92;;
26598;SDS011;14240;51.064;16.612;2022-12-16T13:18:42;143.48;;;50.97;;
26598;SDS011;14240;51.064;16.612;2022-12-16T13:24:42;146.70;;;50.90;;
26598;SDS011;14240;51.064;16.612;2022-12-16T13:27:30;147.10;;;51.88;;
26598;SDS011;14240;51.064;16.612;2022-12-16T13:30:34;149.70;;;50.60;;
26598;SDS011;14240;51.064;16.612;2022-12-16T13:33:36;148.82;;;52.90;;
26598;SDS011;14240;51.064;16.612;2022-12-16T13:36:22;136.77;;;49.28;;
26598;SDS011;14240;51.064;16.612;2022-12-16T13:39:19;160.82;;;56.42;;
26598;SDS011;14240;51.064;16.612;2022-12-16T13:45:41;149.73;;;53.83;;
26598;SDS011;14240;51.064;16.612;2022-12-16T13:48:48;145.05;;;51.15;;
26598;SDS011;14240;51.064;16.612;2022-12-16T13:57:22;185.73;;;69.45;;
26598;SDS011;14240;51.064;16.612;2022-12-16T14:00:17;181.15;;;64.13;;
26598;SDS011;14240;51.064;16.612;2022-12-16T14:03:10;172.93;;;59.80;;
26598;SDS011;14240;51.064;16.612;2022-12-16T14:06:03;180.55;;;63.00;;
26598;SDS011;14240;51.064;16.612;2022-12-16T14:08:48;170.73;;;59.30;;
26598;SDS011;14240;51.064;16.612;2022-12-16T14:14:50;154.68;;;56.80;;
26598;SDS011;14240;51.064;16.612;2022-12-16T14:17:48;158.13;;;57.17;;
26598;SDS011;14240;51.064;16.612;2022-12-16T14:20:43;184.18;;;60.88;;
26598;SDS011;14240;51.064;16.612;2022-12-16T14:26:34;290.73;;;83.32;;
26598;SDS011;14240;51.064;16.612;2022-12-16T14:29:26;213.15;;;69.90;;
26598;SDS011;14240;51.064;16.612;2022-12-16T14:35:12;177.00;;;57.00;;
26598;SDS011;14240;51.064;16.612;2022-12-16T14:41:17;152.60;;;53.85;;
26598;SDS011;14240;51.064;16.612;2022-12-16T14:44:16;148.15;;;53.10;;
26598;SDS011;14240;51.064;16.612;2022-12-16T14:47:03;149.82;;;54.97;;
26598;SDS011;14240;51.064;16.612;2022-12-16T14:49:49;155.65;;;51.83;;
26598;SDS011;14240;51.064;16.612;2022-12-16T14:52:35;179.70;;;62.95;;
26598;SDS011;14240;51.064;16.612;2022-12-16T14:55:25;182.52;;;63.05;;
26598;SDS011;14240;51.064;16.612;2022-12-16T14:58:21;203.82;;;75.13;;
26598;SDS011;14240;51.064;16.612;2022-12-16T15:01:11;185.57;;;63.85;;
26598;SDS011;14240;51.064;16.612;2022-12-16T15:03:57;206.65;;;71.82;;
26598;SDS011;14240;51.064;16.612;2022-12-16T15:06:43;205.85;;;69.47;;
26598;SDS011;14240;51.064;16.612;2022-12-16T15:12:19;179.93;;;67.90;;
26598;SDS011;14240;51.064;16.612;2022-12-16T15:15:08;188.93;;;68.55;;
26598;SDS011;14240;51.064;16.612;2022-12-16T15:17:58;163.43;;;59.25;;
26598;SDS011;14240;51.064;16.612;2022-12-16T15:20:50;184.90;;;62.47;;
26598;SDS011;14240;51.064;16.612;2022-12-16T15:23:40;171.73;;;56.13;;
26598;SDS011;14240;51.064;16.612;2022-12-16T15:26:28;151.02;;;53.72;;
26598;SDS011;14240;51.064;16.612;2022-12-16T15:32:35;145.30;;;50.90;;
26598;SDS011;14240;51.064;16.612;2022-12-16T15:38:26;141.73;;;52.53;;
26598;SDS011;14240;51.064;16.612;2022-12-16T15:41:16;141.63;;;49.40;;
26598;SDS011;14240;51.064;16.612;2022-12-16T15:47:25;151.80;;;52.17;;
26598;SDS011;14240;51.064;16.612;2022-12-16T15:50:24;162.63;;;52.85;;
26598;SDS011;14240;51.064;16.612;2022-12-16T15:56:21;164.93;;;56.67;;
26598;SDS011;14240;51.064;16.612;2022-12-16T15:59:26;171.80;;;56.70;;
26598;SDS011;14240;51.064;16.612;2022-12-16T16:02:14;169.50;;;56.83;;
26598;SDS011;14240;51.064;16.612;2022-12-16T16:05:14;168.30;;;55.45;;
26598;SDS011;14240;51.064;16.612;2022-12-16T16:08:01;179.05;;;59.40;;
26598;SDS011;14240;51.064;16.612;2022-12-16T16:10:46;164.82;;;57.58;;
26598;SDS011;14240;51.064;16.612;2022-12-16T16:13:31;169.93;;;56.83;;
26598;SDS011;14240;51.064;16.612;2022-12-16T16:16:15;160.95;;;55.55;;
26598;SDS011;14240;51.064;16.612;2022-12-16T16:18:59;152.85;;;57.33;;
26598;SDS011;14240;51.064;16.612;2022-12-16T16:21:44;166.50;;;60.38;;
26598;SDS011;14240;51.064;16.612;2022-12-16T16:24:29;154.50;;;55.50;;
26598;SDS011;14240;51.064;16.612;2022-12-16T16:27:13;150.57;;;52.65;;
26598;SDS011;14240;51.064;16.612;2022-12-16T16:29:58;167.50;;;55.22;;
26598;SDS011;14240;51.064;16.612;2022-12-16T16:32:43;163.98;;;52.30;;
26598;SDS011;14240;51.064;16.612;2022-12-16T16:35:28;158.43;;;53.28;;
26598;SDS011;14240;51.064;16.612;2022-12-16T16:38:15;163.52;;;55.88;;
26598;SDS011;14240;51.064;16.612;2022-12-16T16:41:00;177.13;;;62.33;;
26598;SDS011;14240;51.064;16.612;2022-12-16T16:43:44;171.43;;;59.80;;
26598;SDS011;14240;51.064;16.612;2022-12-16T16:46:39;179.52;;;63.80;;
26598;SDS011;14240;51.064;16.612;2022-12-16T16:52:14;153.23;;;55.63;;
26598;SDS011;14240;51.064;16.612;2022-12-16T16:55:00;167.10;;;58.70;;
26598;SDS011;14240;51.064;16.612;2022-12-16T16:57:45;172.38;;;57.53;;
26598;SDS011;14240;51.064;16.612;2022-12-16T17:00:29;178.75;;;60.25;;
26598;SDS011;14240;51.064;16.612;2022-12-16T17:03:13;194.07;;;62.25;;
26598;SDS011;14240;51.064;16.612;2022-12-16T17:05:58;186.55;;;66.93;;
26598;SDS011;14240;51.064;16.612;2022-12-16T17:12:10;174.02;;;61.17;;
26598;SDS011;14240;51.064;16.612;2022-12-16T17:18:18;159.40;;;54.72;;
26598;SDS011;14240;51.064;16.612;2022-12-16T17:21:03;174.07;;;60.95;;
26598;SDS011;14240;51.064;16.612;2022-12-16T17:23:47;180.73;;;61.28;;
26598;SDS011;14240;51.064;16.612;2022-12-16T17:26:32;169.13;;;58.40;;
26598;SDS011;14240;51.064;16.612;2022-12-16T17:29:18;171.40;;;59.45;;
26598;SDS011;14240;51.064;16.612;2022-12-16T17:32:07;175.55;;;60.97;;
26598;SDS011;14240;51.064;16.612;2022-12-16T17:34:51;166.30;;;58.78;;
26598;SDS011;14240;51.064;16.612;2022-12-16T17:37:36;169.40;;;60.38;;
26598;SDS011;14240;51.064;16.612;2022-12-16T17:40:20;186.98;;;60.28;;
26598;SDS011;14240;51.064;16.612;2022-12-16T17:43:04;182.88;;;60.28;;
26598;SDS011;14240;51.064;16.612;2022-12-16T17:46:22;194.25;;;63.20;;
26598;SDS011;14240;51.064;16.612;2022-12-16T17:49:00;188.43;;;66.30;;
26598;SDS011;14240;51.064;16.612;2022-12-16T17:51:44;187.75;;;65.45;;
26598;SDS011;14240;51.064;16.612;2022-12-16T17:54:29;183.10;;;63.08;;
26598;SDS011;14240;51.064;16.612;2022-12-16T17:57:13;190.43;;;63.05;;
26598;SDS011;14240;51.064;16.612;2022-12-16T17:59:58;196.52;;;67.72;;
26598;SDS011;14240;51.064;16.612;2022-12-16T18:02:42;210.30;;;76.18;;
26598;SDS011;14240;51.064;16.612;2022-12-16T18:05:27;169.88;;;58.42;;